createdAt,value
2022-08-23T00:01:29.166Z,3.30
2022-08-23T00:04:01.958Z,3.08
2022-08-23T00:06:29.288Z,2.67
2022-08-23T00:08:56.382Z,3.08
2022-08-23T00:11:47.788Z,3.28
2022-08-23T00:14:28.399Z,2.40
2022-08-23T00:16:57.168Z,2.85
2022-08-23T00:19:24.980Z,2.80
2022-08-23T00:21:54.711Z,2.78
2022-08-23T00:24:23.537Z,3.10
2022-08-23T00:27:05.123Z,2.83
2022-08-23T00:32:07.858Z,3.15
2022-08-23T00:34:36.274Z,3.30
2022-08-23T00:37:04.743Z,3.00
2022-08-23T00:39:31.579Z,3.42
2022-08-23T00:42:53.052Z,3.67
2022-08-23T00:45:45.759Z,3.10
2022-08-23T00:48:13.769Z,3.30
2022-08-23T00:50:43.182Z,2.72
2022-08-23T00:53:23.434Z,2.28
2022-08-23T00:55:54.537Z,3.20
2022-08-23T00:58:21.876Z,3.10
2022-08-23T01:00:50.347Z,2.80
2022-08-23T01:03:20.656Z,2.25
2022-08-23T01:06:09.734Z,2.50
2022-08-23T01:08:38.223Z,3.10
2022-08-23T01:11:16.039Z,2.83
2022-08-23T01:13:50.334Z,2.92
2022-08-23T01:16:29.052Z,2.40
2022-08-23T01:18:56.582Z,2.53
2022-08-23T01:21:38.028Z,2.67
2022-08-23T01:24:08.870Z,2.88
2022-08-23T01:26:44.916Z,2.60
2022-08-23T01:29:11.655Z,2.67
2022-08-23T01:31:38.395Z,3.65
2022-08-23T01:34:08.953Z,2.70
2022-08-23T01:36:36.598Z,2.73
2022-08-23T01:39:05.563Z,2.83
2022-08-23T01:41:33.392Z,2.33
2022-08-23T01:44:00.584Z,2.90
2022-08-23T01:46:28.509Z,2.58
2022-08-23T01:48:56.071Z,2.53
2022-08-23T01:51:25.028Z,2.30
2022-08-23T01:53:52.517Z,3.05
2022-08-23T01:56:38.061Z,3.10
2022-08-23T01:59:10.007Z,2.45
2022-08-23T02:01:41.789Z,2.58
2022-08-23T02:04:08.680Z,3.00
2022-08-23T02:06:35.882Z,2.83
2022-08-23T02:09:05.829Z,2.88
2022-08-23T02:11:45.363Z,2.70
2022-08-23T02:14:15.771Z,2.95
2022-08-23T02:17:03.286Z,2.50
2022-08-23T02:19:33.769Z,2.47
2022-08-23T02:22:03.298Z,2.92
2022-08-23T02:24:31.291Z,2.50
2022-08-23T02:27:02.054Z,2.63
2022-08-23T02:29:29.826Z,3.00
2022-08-23T02:31:59.879Z,3.00
2022-08-23T02:34:36.926Z,2.85
2022-08-23T02:37:04.322Z,3.60
2022-08-23T02:39:31.563Z,2.97
2022-08-23T02:41:59.227Z,2.60
2022-08-23T02:44:26.008Z,2.97
2022-08-23T02:46:54.022Z,2.58
2022-08-23T02:49:21.336Z,2.60
2022-08-23T02:51:48.138Z,2.90
2022-08-23T02:54:14.999Z,2.80
2022-08-23T02:56:41.979Z,2.47
2022-08-23T02:59:08.867Z,3.17
2022-08-23T03:01:38.579Z,3.05
2022-08-23T03:04:18.921Z,2.92
2022-08-23T03:06:45.853Z,2.80
2022-08-23T03:09:13.032Z,2.53
2022-08-23T03:11:45.506Z,2.50
2022-08-23T03:14:13.490Z,2.70
2022-08-23T03:16:42.077Z,2.65
2022-08-23T03:19:09.467Z,3.45
2022-08-23T03:21:36.559Z,3.22
2022-08-23T03:24:09.555Z,2.97
2022-08-23T03:26:37.571Z,2.60
2022-08-23T03:29:05.082Z,2.63
2022-08-23T03:31:41.494Z,2.95
2022-08-23T03:34:12.168Z,2.87
2022-08-23T03:36:39.194Z,3.38
2022-08-23T03:39:06.669Z,2.83
2022-08-23T03:41:33.950Z,3.05
2022-08-23T03:44:00.758Z,2.70
2022-08-23T03:46:33.910Z,2.88
2022-08-23T03:49:02.489Z,3.30
2022-08-23T03:51:38.057Z,3.38
2022-08-23T03:54:05.326Z,3.63
2022-08-23T03:56:35.990Z,2.83
2022-08-23T03:59:06.816Z,2.90
2022-08-23T04:01:33.930Z,3.40
2022-08-23T04:04:00.786Z,3.13
2022-08-23T04:06:33.898Z,2.65
2022-08-23T04:09:00.894Z,2.55
2022-08-23T04:11:28.001Z,3.50
2022-08-23T04:14:00.391Z,3.10
2022-08-23T04:16:28.911Z,2.80
2022-08-23T04:18:55.953Z,2.83
2022-08-23T04:21:24.427Z,3.00
2022-08-23T04:23:52.711Z,3.35
2022-08-23T04:26:21.405Z,2.90
2022-08-23T04:28:49.626Z,3.28
2022-08-23T04:31:17.960Z,2.88
2022-08-23T04:33:52.492Z,2.83
2022-08-23T04:36:20.826Z,2.75
2022-08-23T04:38:50.840Z,2.88
2022-08-23T04:41:37.186Z,3.03
2022-08-23T04:44:05.585Z,3.30
2022-08-23T04:46:33.498Z,3.33
2022-08-23T04:49:02.540Z,2.97
2022-08-23T04:51:29.558Z,3.25
2022-08-23T04:53:56.795Z,3.08
2022-08-23T04:56:41.747Z,2.80
2022-08-23T04:59:09.753Z,3.25
2022-08-23T05:01:42.813Z,3.70
2022-08-23T05:04:09.787Z,2.80
2022-08-23T05:06:39.070Z,3.20
2022-08-23T05:09:06.191Z,3.15
2022-08-23T05:11:35.111Z,2.45
2022-08-23T05:14:02.067Z,3.05
2022-08-23T05:16:29.598Z,2.95
2022-08-23T05:19:08.275Z,3.10
2022-08-23T05:21:41.899Z,2.58
2022-08-23T05:24:08.709Z,2.97
2022-08-23T05:26:41.158Z,2.60
2022-08-23T05:29:08.907Z,2.72
2022-08-23T05:31:41.528Z,2.83
2022-08-23T05:34:08.540Z,3.13
2022-08-23T05:36:56.440Z,3.10
2022-08-23T05:39:35.800Z,2.70
2022-08-23T05:42:08.118Z,3.28
2022-08-23T05:44:36.475Z,2.90
2022-08-23T05:47:11.251Z,3.50
2022-08-23T05:49:44.419Z,2.70
2022-08-23T05:52:13.057Z,3.28
2022-08-23T05:54:42.462Z,3.25
2022-08-23T05:57:26.453Z,2.63
2022-08-23T05:59:53.237Z,2.90
2022-08-23T06:02:21.139Z,2.83
2022-08-23T06:04:47.861Z,2.65
2022-08-23T06:07:14.634Z,2.53
2022-08-23T06:09:41.452Z,2.97
2022-08-23T06:12:09.841Z,2.95
2022-08-23T06:14:38.534Z,3.08
2022-08-23T06:17:05.566Z,2.30
2022-08-23T06:19:32.500Z,2.75
2022-08-23T06:22:23.403Z,2.83
2022-08-23T06:24:50.306Z,2.35
2022-08-23T06:27:17.096Z,2.42
2022-08-23T06:29:44.443Z,2.92
2022-08-23T06:32:29.533Z,2.63
2022-08-23T06:35:33.124Z,2.80
2022-08-23T06:38:11.167Z,2.83
2022-08-23T06:41:05.947Z,3.00
2022-08-23T06:43:42.725Z,3.00
2022-08-23T06:46:29.630Z,3.15
2022-08-23T06:48:58.097Z,2.35
2022-08-23T06:51:31.093Z,2.38
2022-08-23T06:54:27.529Z,2.20
2022-08-23T06:57:14.589Z,2.42
2022-08-23T06:59:54.996Z,2.63
2022-08-23T07:02:38.887Z,2.60
2022-08-23T07:05:24.786Z,2.50
2022-08-23T07:08:05.227Z,2.88
2022-08-23T07:10:32.014Z,2.70
2022-08-23T07:12:58.983Z,3.10
2022-08-23T07:15:25.870Z,3.05
2022-08-23T07:17:52.765Z,2.90
2022-08-23T07:20:19.718Z,2.60
2022-08-23T07:22:46.442Z,2.58
2022-08-23T07:25:13.347Z,2.83
2022-08-23T07:27:42.175Z,2.67
2022-08-23T07:30:10.274Z,2.67
2022-08-23T07:32:40.506Z,2.47
2022-08-23T07:35:21.592Z,2.60
2022-08-23T07:37:49.172Z,2.35
2022-08-23T07:40:20.376Z,2.83
2022-08-23T07:42:49.791Z,2.72
2022-08-23T07:45:18.766Z,2.25
2022-08-23T07:47:51.200Z,2.22
2022-08-23T07:50:18.681Z,2.20
2022-08-23T07:52:46.283Z,1.98
2022-08-23T07:55:14.030Z,2.28
2022-08-23T07:58:00.986Z,2.65
2022-08-23T08:00:36.203Z,2.42
2022-08-23T08:03:22.838Z,2.38
2022-08-23T08:06:09.412Z,2.45
2022-08-23T08:08:36.576Z,2.67
2022-08-23T08:11:03.651Z,2.10
2022-08-23T08:13:31.473Z,2.50
2022-08-23T08:15:58.466Z,2.33
2022-08-23T08:18:28.348Z,3.20
2022-08-23T08:21:15.967Z,3.38
2022-08-23T08:24:04.361Z,2.17
2022-08-23T08:26:49.779Z,2.05
2022-08-23T08:29:17.929Z,2.00
2022-08-23T08:31:50.313Z,2.15
2022-08-23T08:34:20.182Z,2.28
2022-08-23T08:36:52.067Z,2.35
2022-08-23T08:39:26.369Z,2.10
2022-08-23T08:42:08.109Z,2.42
2022-08-23T08:47:42.148Z,2.08
2022-08-23T08:50:33.896Z,1.90
2022-08-23T08:53:17.751Z,2.40
2022-08-23T08:56:32.751Z,2.13
2022-08-23T08:59:23.061Z,2.28
2022-08-23T09:01:50.434Z,2.08
2022-08-23T09:04:25.604Z,2.00
2022-08-23T09:07:08.146Z,2.03
2022-08-23T09:09:59.135Z,2.10
2022-08-23T09:15:12.983Z,2.60
2022-08-23T09:17:51.242Z,2.13
2022-08-23T09:20:22.935Z,2.10
2022-08-23T09:23:14.126Z,2.15
2022-08-23T09:25:54.905Z,2.28
2022-08-23T09:28:35.713Z,2.45
2022-08-23T09:31:04.435Z,2.03
2022-08-23T09:33:40.532Z,2.03
2022-08-23T09:36:22.464Z,2.35
2022-08-23T09:39:07.369Z,3.17
2022-08-23T09:41:41.529Z,2.10
2022-08-23T09:44:13.883Z,2.40
2022-08-23T09:46:44.100Z,2.65
2022-08-23T09:49:35.469Z,2.22
2022-08-23T09:52:32.283Z,2.72
2022-08-23T09:55:10.314Z,2.35
2022-08-23T09:57:48.083Z,2.13
2022-08-23T10:00:17.620Z,1.95
2022-08-23T10:02:50.354Z,2.17
2022-08-23T10:05:38.553Z,2.10
2022-08-23T10:08:10.875Z,2.28
2022-08-23T10:10:51.770Z,1.85
2022-08-23T10:13:27.330Z,1.45
2022-08-23T10:16:13.092Z,1.65
2022-08-23T10:19:03.802Z,1.80
2022-08-23T10:21:52.544Z,2.63
2022-08-23T10:24:38.902Z,1.63
2022-08-23T10:27:44.460Z,1.70
2022-08-23T10:30:15.327Z,1.50
2022-08-23T10:32:47.885Z,1.70
2022-08-23T10:35:29.975Z,1.98
2022-08-23T10:38:13.054Z,1.77
2022-08-23T10:40:54.823Z,1.70
2022-08-23T10:43:48.328Z,2.10
2022-08-23T10:46:15.385Z,1.50
2022-08-23T10:48:51.520Z,1.90
2022-08-23T10:51:32.658Z,1.70
2022-08-23T10:54:09.617Z,1.58
2022-08-23T10:56:44.323Z,1.90
2022-08-23T10:59:24.191Z,1.70
2022-08-23T11:02:09.235Z,1.55
2022-08-23T11:04:54.950Z,1.50
2022-08-23T11:07:35.132Z,2.08
2022-08-23T11:10:16.724Z,1.63
2022-08-23T11:13:11.370Z,1.30
2022-08-23T11:15:59.590Z,1.98
2022-08-23T11:18:48.731Z,1.63
2022-08-23T11:21:26.035Z,1.90
2022-08-23T11:23:59.327Z,1.50
2022-08-23T11:26:36.259Z,1.83
2022-08-23T11:29:06.403Z,1.50
2022-08-23T11:31:56.346Z,1.33
2022-08-23T11:34:29.555Z,1.40
2022-08-23T11:37:24.358Z,1.27
2022-08-23T11:39:59.475Z,1.40
2022-08-23T11:42:38.563Z,1.50
2022-08-23T11:45:29.015Z,1.33
2022-08-23T11:50:57.594Z,1.35
2022-08-23T11:53:58.580Z,1.27
2022-08-23T11:56:55.253Z,1.55
2022-08-23T11:59:41.859Z,1.95
2022-08-23T12:02:34.060Z,1.20
2022-08-23T12:05:08.822Z,1.58
2022-08-23T12:07:51.087Z,1.70
2022-08-23T12:10:44.298Z,1.20
2022-08-23T12:13:23.205Z,1.80
2022-08-23T12:16:17.030Z,1.40
2022-08-23T12:18:51.530Z,1.50
2022-08-23T12:21:23.715Z,1.50
2022-08-23T12:23:57.361Z,1.40
2022-08-23T12:26:59.137Z,1.52
2022-08-23T12:30:02.112Z,1.38
2022-08-23T12:32:34.787Z,1.40
2022-08-23T12:35:20.451Z,1.48
2022-08-23T12:38:14.793Z,1.40
2022-08-23T12:40:46.998Z,1.42
2022-08-23T12:43:17.549Z,1.50
2022-08-23T12:46:01.174Z,1.45
2022-08-23T12:48:32.584Z,1.70
2022-08-23T12:51:07.930Z,1.40
2022-08-23T12:53:44.807Z,1.35
2022-08-23T12:56:19.470Z,2.00
2022-08-23T12:58:52.249Z,1.50
2022-08-23T13:01:26.392Z,2.03
2022-08-23T13:04:17.710Z,1.38
2022-08-23T13:06:50.655Z,1.50
2022-08-23T13:09:31.481Z,1.55
2022-08-23T13:11:58.981Z,1.80
2022-08-23T13:14:39.920Z,1.60
2022-08-23T13:17:25.155Z,2.05
2022-08-23T13:20:13.913Z,1.80
2022-08-23T13:22:56.612Z,1.40
2022-08-23T13:25:50.010Z,1.70
2022-08-23T13:28:29.696Z,1.45
2022-08-23T13:31:08.030Z,1.60
2022-08-23T13:33:35.574Z,1.58
2022-08-23T13:36:21.447Z,1.10
2022-08-23T13:38:49.441Z,1.90
2022-08-23T13:41:38.721Z,1.25
2022-08-23T13:44:10.135Z,1.37
2022-08-23T13:46:45.569Z,1.60
2022-08-23T13:49:28.407Z,2.47
2022-08-23T13:54:51.202Z,2.20
2022-08-23T13:57:21.580Z,2.45
2022-08-23T13:59:54.989Z,1.40
2022-08-23T14:02:24.043Z,1.00
2022-08-23T14:04:51.169Z,1.45
2022-08-23T14:07:18.403Z,1.75
2022-08-23T14:09:50.088Z,1.27
2022-08-23T14:12:22.512Z,1.70
2022-08-23T14:14:49.977Z,1.25
2022-08-23T14:17:20.209Z,1.92
2022-08-23T14:20:32.879Z,1.67
2022-08-23T14:22:36.008Z,1.65
2022-08-23T14:25:03.096Z,1.48
2022-08-23T14:27:29.953Z,1.23
2022-08-23T14:29:56.689Z,1.73
2022-08-23T14:32:24.221Z,1.35
2022-08-23T14:34:52.286Z,1.50
2022-08-23T14:38:02.784Z,1.55
2022-08-23T14:40:06.502Z,1.52
2022-08-23T14:42:33.368Z,1.30
2022-08-23T14:45:00.220Z,1.40
2022-08-23T14:47:27.050Z,1.60
2022-08-23T14:49:54.345Z,1.42
2022-08-23T14:52:22.070Z,1.33
2022-08-23T14:54:49.765Z,1.65
2022-08-23T14:57:17.018Z,1.80
2022-08-23T14:59:44.061Z,2.10
2022-08-23T15:02:13.277Z,1.52
2022-08-23T15:04:41.678Z,1.48
2022-08-23T15:07:24.018Z,1.70
2022-08-23T15:09:54.715Z,1.80
2022-08-23T15:15:12.754Z,1.23
2022-08-23T15:17:51.925Z,1.25
2022-08-23T15:20:24.849Z,1.23
2022-08-23T15:22:55.518Z,1.67
2022-08-23T15:25:24.794Z,1.30
2022-08-23T15:27:52.045Z,1.30
2022-08-23T15:30:19.207Z,1.50
2022-08-23T15:32:52.662Z,1.55
2022-08-23T15:35:40.540Z,1.48
2022-08-23T15:38:08.272Z,1.20
2022-08-23T15:40:35.462Z,1.50
2022-08-23T15:43:03.337Z,1.17
2022-08-23T15:45:32.230Z,1.48
2022-08-23T15:48:01.192Z,1.50
2022-08-23T15:50:32.545Z,1.05
2022-08-23T15:52:59.956Z,1.30
2022-08-23T15:55:32.591Z,1.33
2022-08-23T15:57:59.946Z,1.58
2022-08-23T16:00:28.309Z,1.10
2022-08-23T16:03:19.989Z,1.10
2022-08-23T16:05:44.809Z,1.30
2022-08-23T16:08:33.384Z,1.02
2022-08-23T16:11:04.867Z,1.63
2022-08-23T16:13:31.881Z,1.25
2022-08-23T16:15:58.599Z,1.10
2022-08-23T16:18:25.423Z,1.20
2022-08-23T16:20:54.223Z,1.60
2022-08-23T16:23:21.810Z,1.17
2022-08-23T16:25:48.534Z,1.38
2022-08-23T16:28:15.293Z,1.45
2022-08-23T16:30:42.073Z,1.23
2022-08-23T16:33:08.841Z,1.25
2022-08-23T16:35:35.691Z,1.30
2022-08-23T16:38:02.438Z,1.00
2022-08-23T16:40:29.200Z,1.23
2022-08-23T16:42:56.446Z,1.10
2022-08-23T16:45:25.766Z,1.48
2022-08-23T16:47:57.287Z,1.40
2022-08-23T16:50:24.119Z,1.90
2022-08-23T16:52:50.856Z,1.50
2022-08-23T16:55:17.928Z,1.20
2022-08-23T16:57:44.684Z,1.40
2022-08-23T17:00:13.435Z,1.40
2022-08-23T17:02:41.371Z,1.52
2022-08-23T17:05:11.121Z,1.30
2022-08-23T17:07:38.042Z,1.50
2022-08-23T17:10:06.324Z,1.27
2022-08-23T17:12:36.644Z,1.10
2022-08-23T17:15:05.877Z,1.25
2022-08-23T17:17:32.971Z,1.38
2022-08-23T17:20:00.490Z,1.42
2022-08-23T17:22:27.337Z,1.10
2022-08-23T17:24:54.155Z,1.50
2022-08-23T17:27:20.862Z,2.20
2022-08-23T17:29:47.586Z,1.23
2022-08-23T17:32:14.411Z,1.38
2022-08-23T17:34:41.187Z,1.58
2022-08-23T17:37:19.203Z,1.50
2022-08-23T17:39:46.743Z,1.45
2022-08-23T17:42:14.238Z,1.45
2022-08-23T17:44:41.117Z,1.30
2022-08-23T17:47:12.206Z,1.23
2022-08-23T17:52:06.300Z,1.35
2022-08-23T17:54:33.270Z,1.25
2022-08-23T17:57:00.732Z,1.58
2022-08-23T17:59:27.535Z,1.23
2022-08-23T18:01:54.314Z,1.38
2022-08-23T18:04:21.145Z,1.30
2022-08-23T18:06:48.174Z,1.55
2022-08-23T18:09:15.614Z,1.42
2022-08-23T18:11:42.710Z,1.40
2022-08-23T18:14:09.959Z,1.38
2022-08-23T18:16:36.895Z,1.40
2022-08-23T18:19:09.522Z,1.60
2022-08-23T18:21:41.037Z,1.30
2022-08-23T18:24:08.267Z,1.50
2022-08-23T18:26:54.571Z,1.30
2022-08-23T18:29:21.920Z,1.40
2022-08-23T18:31:48.949Z,1.67
2022-08-23T18:34:16.734Z,2.00
2022-08-23T18:36:44.811Z,1.67
2022-08-23T18:39:13.799Z,1.50
2022-08-23T18:41:41.369Z,1.58
2022-08-23T18:44:08.379Z,1.60
2022-08-23T18:46:37.384Z,1.90
2022-08-23T18:49:05.282Z,2.20
2022-08-23T18:51:32.161Z,1.35
2022-08-23T18:53:59.287Z,1.33
2022-08-23T18:56:26.357Z,1.45
2022-08-23T18:58:53.611Z,1.35
2022-08-23T19:01:36.622Z,1.52
2022-08-23T19:04:05.033Z,1.80
2022-08-23T19:06:32.170Z,1.30
2022-08-23T19:09:00.936Z,1.60
2022-08-23T19:11:29.309Z,1.40
2022-08-23T19:13:58.438Z,1.58
2022-08-23T19:16:26.454Z,1.92
2022-08-23T19:18:55.023Z,1.73
2022-08-23T19:21:24.280Z,1.13
2022-08-23T19:23:53.543Z,1.70
2022-08-23T19:26:23.700Z,1.75
2022-08-23T19:28:50.560Z,1.77
2022-08-23T19:31:17.381Z,1.35
2022-08-23T19:33:44.394Z,1.60
2022-08-23T19:36:29.221Z,1.40
2022-08-23T19:38:57.886Z,1.80
2022-08-23T19:41:24.647Z,1.48
2022-08-23T19:43:51.418Z,1.70
2022-08-23T19:46:18.263Z,1.73
2022-08-23T19:48:46.563Z,1.90
2022-08-23T19:51:15.741Z,1.70
2022-08-23T19:54:02.855Z,1.40
2022-08-23T19:56:41.330Z,1.45
2022-08-23T19:59:12.290Z,1.40
2022-08-23T20:01:39.267Z,1.73
2022-08-23T20:04:07.597Z,1.55
2022-08-23T20:06:35.621Z,1.92
2022-08-23T20:09:04.685Z,1.88
2022-08-23T20:11:32.411Z,1.30
2022-08-23T20:14:05.410Z,1.50
2022-08-23T20:16:32.671Z,1.63
2022-08-23T20:19:00.410Z,1.20
2022-08-23T20:21:27.409Z,1.90
2022-08-23T20:24:01.272Z,1.60
2022-08-23T20:26:34.029Z,1.63
2022-08-23T20:29:05.157Z,1.67
2022-08-23T20:31:37.855Z,1.52
2022-08-23T20:34:06.339Z,1.75
2022-08-23T20:36:33.574Z,1.33
2022-08-23T20:39:01.811Z,1.52
2022-08-23T20:41:34.206Z,1.55
2022-08-23T20:44:02.189Z,2.17
2022-08-23T20:46:29.204Z,1.80
2022-08-23T20:48:59.285Z,1.70
2022-08-23T20:51:28.145Z,1.70
2022-08-23T20:53:56.023Z,1.42
2022-08-23T20:56:24.137Z,1.85
2022-08-23T20:58:52.116Z,1.60
2022-08-23T21:01:19.127Z,1.45
2022-08-23T21:03:45.889Z,1.35
2022-08-23T21:06:19.996Z,1.80
2022-08-23T21:08:48.433Z,1.60
2022-08-23T21:11:15.693Z,1.83
2022-08-23T21:13:44.086Z,1.63
2022-08-23T21:16:15.660Z,1.75
2022-08-23T21:18:43.361Z,1.65
2022-08-23T21:21:10.656Z,1.48
2022-08-23T21:23:38.210Z,1.65
2022-08-23T21:26:06.436Z,1.42
2022-08-23T21:28:33.736Z,1.38
2022-08-23T21:31:08.124Z,1.85
2022-08-23T21:33:39.791Z,1.73
2022-08-23T21:36:07.525Z,1.48
2022-08-23T21:38:34.711Z,1.42
2022-08-23T21:41:08.770Z,1.88
2022-08-23T21:43:37.239Z,1.40
2022-08-23T21:46:05.422Z,2.03
2022-08-23T21:48:32.586Z,1.40
2022-08-23T21:51:00.072Z,1.77
2022-08-23T21:53:26.969Z,1.60
2022-08-23T21:55:53.684Z,1.80
2022-08-23T21:58:20.984Z,1.70
2022-08-23T22:00:47.789Z,1.52
2022-08-23T22:03:14.636Z,1.40
2022-08-23T22:05:43.226Z,1.60
2022-08-23T22:08:14.329Z,2.00
2022-08-23T22:13:26.923Z,1.75
2022-08-23T22:15:53.747Z,1.52
2022-08-23T22:18:20.833Z,1.98
2022-08-23T22:20:47.616Z,2.00
2022-08-23T22:23:14.461Z,1.63
2022-08-23T22:25:41.279Z,1.65
2022-08-23T22:28:08.187Z,1.60
2022-08-23T22:30:35.094Z,1.50
2022-08-23T22:33:02.043Z,1.80
2022-08-23T22:35:28.891Z,1.70
2022-08-23T22:38:12.765Z,1.75
2022-08-23T22:40:40.752Z,1.65
2022-08-23T22:43:07.678Z,1.50
2022-08-23T22:45:34.453Z,1.85
2022-08-23T22:48:01.418Z,1.73
2022-08-23T22:50:28.294Z,1.70
2022-08-23T22:52:55.037Z,1.50
2022-08-23T22:55:21.816Z,1.67
2022-08-23T22:57:48.587Z,1.52
2022-08-23T23:00:16.197Z,1.83
2022-08-23T23:02:43.103Z,1.63
2022-08-23T23:05:10.052Z,1.63
2022-08-23T23:08:03.379Z,1.60
2022-08-23T23:10:30.221Z,1.73
2022-08-23T23:12:57.024Z,1.40
2022-08-23T23:15:23.742Z,1.98
2022-08-23T23:17:50.461Z,1.60
2022-08-23T23:20:35.708Z,1.98
2022-08-23T23:23:02.508Z,1.65
2022-08-23T23:25:29.236Z,1.65
2022-08-23T23:27:59.146Z,2.10
2022-08-23T23:30:29.738Z,1.80
2022-08-23T23:32:57.421Z,1.70
2022-08-23T23:35:24.494Z,1.90
2022-08-23T23:37:52.653Z,1.90
2022-08-23T23:40:19.733Z,1.95
2022-08-23T23:42:47.257Z,1.83
2022-08-23T23:45:15.475Z,1.77
2022-08-23T23:47:42.459Z,1.65
2022-08-23T23:50:11.781Z,1.58
2022-08-23T23:52:39.087Z,1.80
2022-08-23T23:55:09.073Z,1.70
2022-08-23T23:57:35.809Z,1.77
